sensor_id;sensor_type;location;lat;lon;timestamp;temperature;humidity
4411;DHT22;2218;51.408;7.208;2023-11-19T00:01:27;17.80;47.40
4411;DHT22;2218;51.408;7.208;2023-11-19T00:03:54;17.80;47.40
4411;DHT22;2218;51.408;7.208;2023-11-19T00:06:22;17.80;47.50
4411;DHT22;2218;51.408;7.208;2023-11-19T00:08:49;17.80;47.50
4411;DHT22;2218;51.408;7.208;2023-11-19T00:11:16;17.80;47.60
4411;DHT22;2218;51.408;7.208;2023-11-19T00:13:43;17.80;47.70
4411;DHT22;2218;51.408;7.208;2023-11-19T00:16:10;17.80;47.70
4411;DHT22;2218;51.408;7.208;2023-11-19T00:18:37;17.80;47.70
4411;DHT22;2218;51.408;7.208;2023-11-19T00:21:05;17.80;47.80
4411;DHT22;2218;51.408;7.208;2023-11-19T00:23:35;17.80;47.80
4411;DHT22;2218;51.408;7.208;2023-11-19T00:26:02;17.80;47.90
4411;DHT22;2218;51.408;7.208;2023-11-19T00:28:31;17.80;48.00
4411;DHT22;2218;51.408;7.208;2023-11-19T00:31:00;17.80;48.10
4411;DHT22;2218;51.408;7.208;2023-11-19T00:33:28;17.80;48.10
4411;DHT22;2218;51.408;7.208;2023-11-19T00:35:56;17.80;48.60
4411;DHT22;2218;51.408;7.208;2023-11-19T00:38:23;17.80;48.20
4411;DHT22;2218;51.408;7.208;2023-11-19T00:40:52;17.80;48.20
4411;DHT22;2218;51.408;7.208;2023-11-19T00:43:18;17.80;48.30
4411;DHT22;2218;51.408;7.208;2023-11-19T00:45:47;17.80;48.40
4411;DHT22;2218;51.408;7.208;2023-11-19T00:48:16;17.80;48.40
4411;DHT22;2218;51.408;7.208;2023-11-19T00:50:43;17.80;48.50
4411;DHT22;2218;51.408;7.208;2023-11-19T00:53:11;17.80;48.60
4411;DHT22;2218;51.408;7.208;2023-11-19T00:55:38;17.80;48.60
4411;DHT22;2218;51.408;7.208;2023-11-19T00:58:06;17.80;48.60
4411;DHT22;2218;51.408;7.208;2023-11-19T01:00:35;17.80;48.70
4411;DHT22;2218;51.408;7.208;2023-11-19T01:03:02;17.80;48.70
4411;DHT22;2218;51.408;7.208;2023-11-19T01:05:29;17.80;48.80
4411;DHT22;2218;51.408;7.208;2023-11-19T01:07:55;17.80;48.90
4411;DHT22;2218;51.408;7.208;2023-11-19T01:10:23;17.80;48.90
4411;DHT22;2218;51.408;7.208;2023-11-19T01:12:51;17.80;48.90
4411;DHT22;2218;51.408;7.208;2023-11-19T01:15:20;17.80;49.00
4411;DHT22;2218;51.408;7.208;2023-11-19T01:17:47;17.80;49.10
4411;DHT22;2218;51.408;7.208;2023-11-19T01:20:14;17.80;49.10
4411;DHT22;2218;51.408;7.208;2023-11-19T01:22:41;17.80;49.20
4411;DHT22;2218;51.408;7.208;2023-11-19T01:25:08;17.80;49.30
4411;DHT22;2218;51.408;7.208;2023-11-19T01:27:35;17.80;49.30
4411;DHT22;2218;51.408;7.208;2023-11-19T01:30:03;17.80;49.40
4411;DHT22;2218;51.408;7.208;2023-11-19T01:32:32;17.80;49.40
4411;DHT22;2218;51.408;7.208;2023-11-19T01:35:00;17.80;49.50
4411;DHT22;2218;51.408;7.208;2023-11-19T01:37:28;17.80;49.50
4411;DHT22;2218;51.408;7.208;2023-11-19T01:39:55;17.80;49.60
4411;DHT22;2218;51.408;7.208;2023-11-19T01:42:23;17.80;49.60
4411;DHT22;2218;51.408;7.208;2023-11-19T01:44:58;17.70;49.60
4411;DHT22;2218;51.408;7.208;2023-11-19T01:47:27;17.80;49.70
4411;DHT22;2218;51.408;7.208;2023-11-19T01:49:59;17.80;49.80
4411;DHT22;2218;51.408;7.208;2023-11-19T01:52:27;17.80;49.80
4411;DHT22;2218;51.408;7.208;2023-11-19T01:54:54;17.80;49.90
4411;DHT22;2218;51.408;7.208;2023-11-19T01:57:22;17.80;50.00
4411;DHT22;2218;51.408;7.208;2023-11-19T01:59:51;17.70;50.00
4411;DHT22;2218;51.408;7.208;2023-11-19T02:02:19;17.80;50.10
4411;DHT22;2218;51.408;7.208;2023-11-19T02:04:49;17.80;50.10
4411;DHT22;2218;51.408;7.208;2023-11-19T02:07:19;17.70;50.10
4411;DHT22;2218;51.408;7.208;2023-11-19T02:09:46;17.80;50.20
4411;DHT22;2218;51.408;7.208;2023-11-19T02:12:13;17.80;50.30
4411;DHT22;2218;51.408;7.208;2023-11-19T02:14:40;17.70;50.20
4411;DHT22;2218;51.408;7.208;2023-11-19T02:17:25;17.70;50.30
4411;DHT22;2218;51.408;7.208;2023-11-19T02:19:53;17.70;50.30
4411;DHT22;2218;51.408;7.208;2023-11-19T02:22:23;17.70;50.30
4411;DHT22;2218;51.408;7.208;2023-11-19T02:24:51;17.70;50.40
4411;DHT22;2218;51.408;7.208;2023-11-19T02:27:30;17.70;50.50
4411;DHT22;2218;51.408;7.208;2023-11-19T02:30:08;17.80;50.60
4411;DHT22;2218;51.408;7.208;2023-11-19T02:32:36;17.80;50.60
4411;DHT22;2218;51.408;7.208;2023-11-19T02:35:05;17.80;50.60
4411;DHT22;2218;51.408;7.208;2023-11-19T02:37:33;17.70;50.70
4411;DHT22;2218;51.408;7.208;2023-11-19T02:40:00;17.70;50.70
4411;DHT22;2218;51.408;7.208;2023-11-19T02:42:28;17.80;50.80
4411;DHT22;2218;51.408;7.208;2023-11-19T02:44:57;17.70;51.20
4411;DHT22;2218;51.408;7.208;2023-11-19T02:47:24;17.80;50.80
4411;DHT22;2218;51.408;7.208;2023-11-19T02:49:51;17.80;51.00
4411;DHT22;2218;51.408;7.208;2023-11-19T02:52:18;17.70;50.90
4411;DHT22;2218;51.408;7.208;2023-11-19T02:54:45;17.70;50.90
4411;DHT22;2218;51.408;7.208;2023-11-19T02:57:12;17.80;51.10
4411;DHT22;2218;51.408;7.208;2023-11-19T02:59:40;17.70;51.00
4411;DHT22;2218;51.408;7.208;2023-11-19T03:02:10;17.80;51.10
4411;DHT22;2218;51.408;7.208;2023-11-19T03:04:37;17.70;51.10
4411;DHT22;2218;51.408;7.208;2023-11-19T03:07:05;17.70;51.10
4411;DHT22;2218;51.408;7.208;2023-11-19T03:09:33;17.70;51.20
4411;DHT22;2218;51.408;7.208;2023-11-19T03:12:00;17.80;51.30
4411;DHT22;2218;51.408;7.208;2023-11-19T03:14:27;17.80;51.20
4411;DHT22;2218;51.408;7.208;2023-11-19T03:16:54;17.80;51.20
4411;DHT22;2218;51.408;7.208;2023-11-19T03:19:22;17.80;51.20
4411;DHT22;2218;51.408;7.208;2023-11-19T03:21:49;17.90;51.10
4411;DHT22;2218;51.408;7.208;2023-11-19T03:24:16;17.90;51.00
4411;DHT22;2218;51.408;7.208;2023-11-19T03:26:48;17.90;50.90
4411;DHT22;2218;51.408;7.208;2023-11-19T03:29:15;17.90;50.90
4411;DHT22;2218;51.408;7.208;2023-11-19T03:31:42;18.00;51.20
4411;DHT22;2218;51.408;7.208;2023-11-19T03:34:10;18.00;51.00
4411;DHT22;2218;51.408;7.208;2023-11-19T03:36:38;18.00;51.10
4411;DHT22;2218;51.408;7.208;2023-11-19T03:39:05;18.00;51.10
4411;DHT22;2218;51.408;7.208;2023-11-19T03:41:32;18.00;51.10
4411;DHT22;2218;51.408;7.208;2023-11-19T03:43:59;18.00;51.10
4411;DHT22;2218;51.408;7.208;2023-11-19T03:46:26;18.00;51.10
4411;DHT22;2218;51.408;7.208;2023-11-19T03:48:54;18.00;51.10
4411;DHT22;2218;51.408;7.208;2023-11-19T03:51:21;18.00;51.10
4411;DHT22;2218;51.408;7.208;2023-11-19T03:53:49;18.00;51.00
4411;DHT22;2218;51.408;7.208;2023-11-19T03:56:16;18.00;51.10
4411;DHT22;2218;51.408;7.208;2023-11-19T03:58:43;18.00;51.00
4411;DHT22;2218;51.408;7.208;2023-11-19T04:01:13;18.00;51.10
4411;DHT22;2218;51.408;7.208;2023-11-19T04:03:40;18.10;51.20
4411;DHT22;2218;51.408;7.208;2023-11-19T04:06:07;18.10;51.30
4411;DHT22;2218;51.408;7.208;2023-11-19T04:08:35;18.10;51.30
4411;DHT22;2218;51.408;7.208;2023-11-19T04:11:04;18.10;51.40
4411;DHT22;2218;51.408;7.208;2023-11-19T04:13:30;18.10;51.40
4411;DHT22;2218;51.408;7.208;2023-11-19T04:15:57;18.10;51.40
4411;DHT22;2218;51.408;7.208;2023-11-19T04:18:24;18.10;51.40
4411;DHT22;2218;51.408;7.208;2023-11-19T04:20:51;18.10;51.40
4411;DHT22;2218;51.408;7.208;2023-11-19T04:23:19;18.10;51.40
4411;DHT22;2218;51.408;7.208;2023-11-19T04:25:47;18.10;51.40
4411;DHT22;2218;51.408;7.208;2023-11-19T04:28:15;18.10;51.40
4411;DHT22;2218;51.408;7.208;2023-11-19T04:30:43;18.10;51.40
4411;DHT22;2218;51.408;7.208;2023-11-19T04:33:10;18.10;51.40
4411;DHT22;2218;51.408;7.208;2023-11-19T04:35:37;18.10;51.40
4411;DHT22;2218;51.408;7.208;2023-11-19T04:38:04;18.10;51.40
4411;DHT22;2218;51.408;7.208;2023-11-19T04:40:31;18.10;51.40
4411;DHT22;2218;51.408;7.208;2023-11-19T04:42:59;18.10;51.40
4411;DHT22;2218;51.408;7.208;2023-11-19T04:45:27;18.00;51.30
4411;DHT22;2218;51.408;7.208;2023-11-19T04:47:54;18.10;51.30
4411;DHT22;2218;51.408;7.208;2023-11-19T04:50:21;18.10;51.30
4411;DHT22;2218;51.408;7.208;2023-11-19T04:52:48;18.10;51.30
4411;DHT22;2218;51.408;7.208;2023-11-19T04:55:15;18.10;51.40
4411;DHT22;2218;51.408;7.208;2023-11-19T04:57:43;18.10;51.30
4411;DHT22;2218;51.408;7.208;2023-11-19T05:00:12;18.10;51.30
4411;DHT22;2218;51.408;7.208;2023-11-19T05:02:41;18.10;51.40
4411;DHT22;2218;51.408;7.208;2023-11-19T05:05:08;18.10;51.30
4411;DHT22;2218;51.408;7.208;2023-11-19T05:07:36;18.00;51.20
4411;DHT22;2218;51.408;7.208;2023-11-19T05:10:03;18.00;51.20
4411;DHT22;2218;51.408;7.208;2023-11-19T05:12:31;18.10;51.30
4411;DHT22;2218;51.408;7.208;2023-11-19T05:14:59;18.10;51.20
4411;DHT22;2218;51.408;7.208;2023-11-19T05:17:26;18.10;51.20
4411;DHT22;2218;51.408;7.208;2023-11-19T05:19:54;18.10;51.20
4411;DHT22;2218;51.408;7.208;2023-11-19T05:22:21;18.10;51.70
4411;DHT22;2218;51.408;7.208;2023-11-19T05:24:48;18.00;51.10
4411;DHT22;2218;51.408;7.208;2023-11-19T05:27:15;18.10;51.20
4411;DHT22;2218;51.408;7.208;2023-11-19T05:29:42;18.10;51.20
4411;DHT22;2218;51.408;7.208;2023-11-19T05:32:10;18.10;51.20
4411;DHT22;2218;51.408;7.208;2023-11-19T05:34:37;18.10;51.20
4411;DHT22;2218;51.408;7.208;2023-11-19T05:37:06;18.10;51.20
4411;DHT22;2218;51.408;7.208;2023-11-19T05:39:36;18.00;51.10
4411;DHT22;2218;51.408;7.208;2023-11-19T05:42:03;18.00;51.10
4411;DHT22;2218;51.408;7.208;2023-11-19T05:44:30;18.00;51.10
4411;DHT22;2218;51.408;7.208;2023-11-19T05:46:57;18.10;51.20
4411;DHT22;2218;51.408;7.208;2023-11-19T05:49:24;18.00;51.10
4411;DHT22;2218;51.408;7.208;2023-11-19T05:51:51;18.00;51.10
4411;DHT22;2218;51.408;7.208;2023-11-19T05:54:22;18.00;51.10
4411;DHT22;2218;51.408;7.208;2023-11-19T05:56:49;18.00;51.10
4411;DHT22;2218;51.408;7.208;2023-11-19T05:59:19;18.00;51.10
4411;DHT22;2218;51.408;7.208;2023-11-19T06:01:48;18.00;51.10
4411;DHT22;2218;51.408;7.208;2023-11-19T06:04:15;18.10;51.20
4411;DHT22;2218;51.408;7.208;2023-11-19T06:06:42;18.00;51.10
4411;DHT22;2218;51.408;7.208;2023-11-19T06:09:09;18.10;51.20
4411;DHT22;2218;51.408;7.208;2023-11-19T06:11:37;18.00;51.10
4411;DHT22;2218;51.408;7.208;2023-11-19T06:14:05;18.00;51.10
4411;DHT22;2218;51.408;7.208;2023-11-19T06:16:32;18.00;51.10
4411;DHT22;2218;51.408;7.208;2023-11-19T06:18:59;18.00;51.10
4411;DHT22;2218;51.408;7.208;2023-11-19T06:21:26;18.00;51.10
4411;DHT22;2218;51.408;7.208;2023-11-19T06:23:53;18.00;51.10
4411;DHT22;2218;51.408;7.208;2023-11-19T06:26:20;18.10;51.20
4411;DHT22;2218;51.408;7.208;2023-11-19T06:28:49;18.00;51.00
4411;DHT22;2218;51.408;7.208;2023-11-19T06:31:16;18.00;51.10
4411;DHT22;2218;51.408;7.208;2023-11-19T06:33:42;18.00;51.00
4411;DHT22;2218;51.408;7.208;2023-11-19T06:36:09;18.00;51.00
4411;DHT22;2218;51.408;7.208;2023-11-19T06:38:37;18.00;51.00
4411;DHT22;2218;51.408;7.208;2023-11-19T06:41:07;18.00;51.00
4411;DHT22;2218;51.408;7.208;2023-11-19T06:43:34;18.00;51.00
4411;DHT22;2218;51.408;7.208;2023-11-19T06:46:03;18.00;51.00
4411;DHT22;2218;51.408;7.208;2023-11-19T06:48:31;18.00;51.00
4411;DHT22;2218;51.408;7.208;2023-11-19T06:50:59;18.00;51.00
4411;DHT22;2218;51.408;7.208;2023-11-19T06:53:26;18.00;50.90
4411;DHT22;2218;51.408;7.208;2023-11-19T06:55:53;18.10;51.00
4411;DHT22;2218;51.408;7.208;2023-11-19T06:58:20;18.00;50.90
4411;DHT22;2218;51.408;7.208;2023-11-19T07:00:47;18.00;50.90
4411;DHT22;2218;51.408;7.208;2023-11-19T07:03:16;18.00;50.80
4411;DHT22;2218;51.408;7.208;2023-11-19T07:05:43;18.00;50.80
4411;DHT22;2218;51.408;7.208;2023-11-19T07:08:10;18.00;50.80
4411;DHT22;2218;51.408;7.208;2023-11-19T07:10:37;18.00;50.80
4411;DHT22;2218;51.408;7.208;2023-11-19T07:13:04;18.00;50.70
4411;DHT22;2218;51.408;7.208;2023-11-19T07:15:31;18.00;50.80
4411;DHT22;2218;51.408;7.208;2023-11-19T07:17:59;18.10;50.80
4411;DHT22;2218;51.408;7.208;2023-11-19T07:20:27;18.00;50.70
4411;DHT22;2218;51.408;7.208;2023-11-19T07:22:54;18.00;50.60
4411;DHT22;2218;51.408;7.208;2023-11-19T07:25:22;18.10;50.70
4411;DHT22;2218;51.408;7.208;2023-11-19T07:27:51;18.00;50.60
4411;DHT22;2218;51.408;7.208;2023-11-19T07:30:18;18.00;50.50
4411;DHT22;2218;51.408;7.208;2023-11-19T07:32:45;18.00;50.50
4411;DHT22;2218;51.408;7.208;2023-11-19T07:35:12;18.00;50.50
4411;DHT22;2218;51.408;7.208;2023-11-19T07:37:42;18.10;50.50
4411;DHT22;2218;51.408;7.208;2023-11-19T07:40:10;18.00;50.40
4411;DHT22;2218;51.408;7.208;2023-11-19T07:42:37;18.00;50.40
4411;DHT22;2218;51.408;7.208;2023-11-19T07:45:05;18.10;50.40
4411;DHT22;2218;51.408;7.208;2023-11-19T07:47:33;18.10;50.40
4411;DHT22;2218;51.408;7.208;2023-11-19T07:50:00;18.10;50.40
4411;DHT22;2218;51.408;7.208;2023-11-19T07:52:27;18.10;50.30
4411;DHT22;2218;51.408;7.208;2023-11-19T07:54:55;18.10;50.30
4411;DHT22;2218;51.408;7.208;2023-11-19T07:57:22;18.10;50.30
4411;DHT22;2218;51.408;7.208;2023-11-19T07:59:53;18.10;50.20
4411;DHT22;2218;51.408;7.208;2023-11-19T08:02:20;18.10;50.20
4411;DHT22;2218;51.408;7.208;2023-11-19T08:04:47;18.10;50.20
4411;DHT22;2218;51.408;7.208;2023-11-19T08:07:17;18.10;50.20
4411;DHT22;2218;51.408;7.208;2023-11-19T08:09:44;18.10;50.10
4411;DHT22;2218;51.408;7.208;2023-11-19T08:12:13;18.10;50.10
4411;DHT22;2218;51.408;7.208;2023-11-19T08:14:42;18.10;50.00
4411;DHT22;2218;51.408;7.208;2023-11-19T08:17:10;18.10;50.00
4411;DHT22;2218;51.408;7.208;2023-11-19T08:19:37;18.10;50.00
4411;DHT22;2218;51.408;7.208;2023-11-19T08:22:03;18.10;50.00
4411;DHT22;2218;51.408;7.208;2023-11-19T08:24:30;18.10;49.90
4411;DHT22;2218;51.408;7.208;2023-11-19T08:26:57;18.10;49.90
4411;DHT22;2218;51.408;7.208;2023-11-19T08:29:26;18.10;49.80
4411;DHT22;2218;51.408;7.208;2023-11-19T08:31:53;18.10;49.80
4411;DHT22;2218;51.408;7.208;2023-11-19T08:34:20;18.10;49.80
4411;DHT22;2218;51.408;7.208;2023-11-19T08:36:50;18.10;49.70
4411;DHT22;2218;51.408;7.208;2023-11-19T08:39:18;18.10;49.70
4411;DHT22;2218;51.408;7.208;2023-11-19T08:41:46;18.10;49.70
4411;DHT22;2218;51.408;7.208;2023-11-19T08:44:14;18.10;49.70
4411;DHT22;2218;51.408;7.208;2023-11-19T08:46:47;18.10;49.60
4411;DHT22;2218;51.408;7.208;2023-11-19T08:49:14;18.10;49.60
4411;DHT22;2218;51.408;7.208;2023-11-19T08:51:41;18.10;49.60
4411;DHT22;2218;51.408;7.208;2023-11-19T08:54:09;18.10;49.60
4411;DHT22;2218;51.408;7.208;2023-11-19T08:56:36;18.10;49.60
4411;DHT22;2218;51.408;7.208;2023-11-19T08:59:04;18.10;49.50
4411;DHT22;2218;51.408;7.208;2023-11-19T09:01:31;18.10;49.50
4411;DHT22;2218;51.408;7.208;2023-11-19T09:03:59;18.10;49.50
4411;DHT22;2218;51.408;7.208;2023-11-19T09:06:26;18.10;49.40
4411;DHT22;2218;51.408;7.208;2023-11-19T09:08:53;18.10;49.40
4411;DHT22;2218;51.408;7.208;2023-11-19T09:11:24;18.10;49.40
4411;DHT22;2218;51.408;7.208;2023-11-19T09:13:51;18.10;49.40
4411;DHT22;2218;51.408;7.208;2023-11-19T09:16:18;18.10;49.40
4411;DHT22;2218;51.408;7.208;2023-11-19T09:18:45;18.10;49.40
4411;DHT22;2218;51.408;7.208;2023-11-19T09:21:13;18.10;49.30
4411;DHT22;2218;51.408;7.208;2023-11-19T09:23:40;18.10;49.40
4411;DHT22;2218;51.408;7.208;2023-11-19T09:26:08;18.20;49.40
4411;DHT22;2218;51.408;7.208;2023-11-19T09:28:36;18.10;49.30
4411;DHT22;2218;51.408;7.208;2023-11-19T09:31:12;18.10;49.30
4411;DHT22;2218;51.408;7.208;2023-11-19T09:33:40;18.10;49.30
4411;DHT22;2218;51.408;7.208;2023-11-19T09:36:07;18.20;49.30
4411;DHT22;2218;51.408;7.208;2023-11-19T09:38:37;18.10;49.20
4411;DHT22;2218;51.408;7.208;2023-11-19T09:41:05;18.10;49.30
4411;DHT22;2218;51.408;7.208;2023-11-19T09:43:34;18.10;49.20
4411;DHT22;2218;51.408;7.208;2023-11-19T09:46:04;18.10;49.20
4411;DHT22;2218;51.408;7.208;2023-11-19T09:48:35;18.20;49.30
4411;DHT22;2218;51.408;7.208;2023-11-19T09:51:04;18.10;49.20
4411;DHT22;2218;51.408;7.208;2023-11-19T09:53:34;18.10;49.20
4411;DHT22;2218;51.408;7.208;2023-11-19T09:56:04;18.10;49.20
4411;DHT22;2218;51.408;7.208;2023-11-19T09:58:34;18.10;49.20
4411;DHT22;2218;51.408;7.208;2023-11-19T10:01:01;18.10;49.20
4411;DHT22;2218;51.408;7.208;2023-11-19T10:03:33;18.10;49.10
4411;DHT22;2218;51.408;7.208;2023-11-19T10:06:03;18.10;49.10
4411;DHT22;2218;51.408;7.208;2023-11-19T10:08:33;18.10;49.10
4411;DHT22;2218;51.408;7.208;2023-11-19T10:11:00;18.10;49.10
4411;DHT22;2218;51.408;7.208;2023-11-19T10:13:29;18.10;49.10
4411;DHT22;2218;51.408;7.208;2023-11-19T10:15:56;18.10;49.00
4411;DHT22;2218;51.408;7.208;2023-11-19T10:18:25;18.10;49.00
4411;DHT22;2218;51.408;7.208;2023-11-19T10:20:53;18.10;49.00
4411;DHT22;2218;51.408;7.208;2023-11-19T10:23:20;18.10;49.00
4411;DHT22;2218;51.408;7.208;2023-11-19T10:25:47;18.10;49.00
4411;DHT22;2218;51.408;7.208;2023-11-19T10:28:15;18.10;48.90
4411;DHT22;2218;51.408;7.208;2023-11-19T10:30:44;18.10;48.90
4411;DHT22;2218;51.408;7.208;2023-11-19T10:33:12;18.10;49.00
4411;DHT22;2218;51.408;7.208;2023-11-19T10:35:53;18.10;48.90
4411;DHT22;2218;51.408;7.208;2023-11-19T10:38:22;18.10;48.90
4411;DHT22;2218;51.408;7.208;2023-11-19T10:40:50;18.10;48.90
4411;DHT22;2218;51.408;7.208;2023-11-19T10:43:17;18.10;48.90
4411;DHT22;2218;51.408;7.208;2023-11-19T10:45:46;18.10;48.90
4411;DHT22;2218;51.408;7.208;2023-11-19T10:48:13;18.10;48.90
4411;DHT22;2218;51.408;7.208;2023-11-19T10:50:41;18.10;48.90
4411;DHT22;2218;51.408;7.208;2023-11-19T10:53:11;18.10;48.90
4411;DHT22;2218;51.408;7.208;2023-11-19T10:55:39;18.10;48.80
4411;DHT22;2218;51.408;7.208;2023-11-19T10:58:07;18.10;48.80
4411;DHT22;2218;51.408;7.208;2023-11-19T11:00:43;18.10;48.80
4411;DHT22;2218;51.408;7.208;2023-11-19T11:03:16;18.10;48.80
4411;DHT22;2218;51.408;7.208;2023-11-19T11:05:46;18.10;48.80
4411;DHT22;2218;51.408;7.208;2023-11-19T11:08:15;18.10;48.80
4411;DHT22;2218;51.408;7.208;2023-11-19T11:10:44;18.10;48.80
4411;DHT22;2218;51.408;7.208;2023-11-19T11:13:14;18.10;48.80
4411;DHT22;2218;51.408;7.208;2023-11-19T11:15:41;18.10;48.80
4411;DHT22;2218;51.408;7.208;2023-11-19T11:18:09;18.10;48.80
4411;DHT22;2218;51.408;7.208;2023-11-19T11:20:37;18.10;48.80
4411;DHT22;2218;51.408;7.208;2023-11-19T11:23:21;18.10;48.70
4411;DHT22;2218;51.408;7.208;2023-11-19T11:26:19;18.10;48.70
4411;DHT22;2218;51.408;7.208;2023-11-19T11:29:00;18.10;48.70
4411;DHT22;2218;51.408;7.208;2023-11-19T11:31:36;18.10;48.70
4411;DHT22;2218;51.408;7.208;2023-11-19T11:34:29;18.10;48.60
4411;DHT22;2218;51.408;7.208;2023-11-19T11:37:18;18.10;48.60
4411;DHT22;2218;51.408;7.208;2023-11-19T11:39:50;18.20;48.70
4411;DHT22;2218;51.408;7.208;2023-11-19T11:42:37;18.10;48.60
4411;DHT22;2218;51.408;7.208;2023-11-19T11:45:06;18.10;48.60
4411;DHT22;2218;51.408;7.208;2023-11-19T11:48:06;18.10;48.60
4411;DHT22;2218;51.408;7.208;2023-11-19T11:50:47;18.10;48.60
4411;DHT22;2218;51.408;7.208;2023-11-19T11:53:18;18.10;48.50
4411;DHT22;2218;51.408;7.208;2023-11-19T11:55:55;18.10;48.50
4411;DHT22;2218;51.408;7.208;2023-11-19T11:58:30;18.10;48.50
4411;DHT22;2218;51.408;7.208;2023-11-19T12:01:03;18.10;48.50
4411;DHT22;2218;51.408;7.208;2023-11-19T12:03:32;18.10;48.40
4411;DHT22;2218;51.408;7.208;2023-11-19T12:06:00;18.10;48.40
4411;DHT22;2218;51.408;7.208;2023-11-19T12:08:29;18.10;48.40
4411;DHT22;2218;51.408;7.208;2023-11-19T12:10:58;18.10;48.40
4411;DHT22;2218;51.408;7.208;2023-11-19T12:13:46;18.10;48.40
4411;DHT22;2218;51.408;7.208;2023-11-19T12:16:14;18.10;48.30
4411;DHT22;2218;51.408;7.208;2023-11-19T12:18:41;18.10;48.30
4411;DHT22;2218;51.408;7.208;2023-11-19T12:21:09;18.10;48.30
4411;DHT22;2218;51.408;7.208;2023-11-19T12:23:49;18.10;48.20
4411;DHT22;2218;51.408;7.208;2023-11-19T12:26:32;18.10;48.20
4411;DHT22;2218;51.408;7.208;2023-11-19T12:29:01;18.10;48.10
4411;DHT22;2218;51.408;7.208;2023-11-19T12:31:32;18.20;48.20
4411;DHT22;2218;51.408;7.208;2023-11-19T12:34:05;18.10;48.10
4411;DHT22;2218;51.408;7.208;2023-11-19T12:36:34;18.10;48.10
4411;DHT22;2218;51.408;7.208;2023-11-19T12:39:03;18.20;48.10
4411;DHT22;2218;51.408;7.208;2023-11-19T12:41:30;18.20;48.10
4411;DHT22;2218;51.408;7.208;2023-11-19T12:44:09;18.10;48.00
4411;DHT22;2218;51.408;7.208;2023-11-19T12:46:37;18.10;48.00
4411;DHT22;2218;51.408;7.208;2023-11-19T12:49:04;18.20;48.00
4411;DHT22;2218;51.408;7.208;2023-11-19T12:51:31;18.10;48.00
4411;DHT22;2218;51.408;7.208;2023-11-19T12:53:58;18.20;48.00
4411;DHT22;2218;51.408;7.208;2023-11-19T12:56:27;18.20;48.00
4411;DHT22;2218;51.408;7.208;2023-11-19T12:58:55;18.10;47.90
4411;DHT22;2218;51.408;7.208;2023-11-19T13:01:22;18.10;47.90
4411;DHT22;2218;51.408;7.208;2023-11-19T13:03:49;18.20;47.90
4411;DHT22;2218;51.408;7.208;2023-11-19T13:06:17;18.10;47.80
4411;DHT22;2218;51.408;7.208;2023-11-19T13:08:48;18.10;47.80
4411;DHT22;2218;51.408;7.208;2023-11-19T13:11:32;18.10;47.90
4411;DHT22;2218;51.408;7.208;2023-11-19T13:14:01;18.10;47.80
4411;DHT22;2218;51.408;7.208;2023-11-19T13:16:31;18.10;47.80
4411;DHT22;2218;51.408;7.208;2023-11-19T13:18:58;18.10;47.80
4411;DHT22;2218;51.408;7.208;2023-11-19T13:21:25;18.10;47.80
4411;DHT22;2218;51.408;7.208;2023-11-19T13:23:52;18.10;47.80
4411;DHT22;2218;51.408;7.208;2023-11-19T13:26:19;18.10;47.80
4411;DHT22;2218;51.408;7.208;2023-11-19T13:28:48;18.10;47.80
4411;DHT22;2218;51.408;7.208;2023-11-19T13:31:15;18.10;47.80
4411;DHT22;2218;51.408;7.208;2023-11-19T13:33:42;18.10;47.80
4411;DHT22;2218;51.408;7.208;2023-11-19T13:36:09;18.10;47.80
4411;DHT22;2218;51.408;7.208;2023-11-19T13:38:36;18.10;47.80
4411;DHT22;2218;51.408;7.208;2023-11-19T13:41:06;18.10;47.80
4411;DHT22;2218;51.408;7.208;2023-11-19T13:43:35;18.10;47.80
4411;DHT22;2218;51.408;7.208;2023-11-19T13:46:04;18.10;47.80
4411;DHT22;2218;51.408;7.208;2023-11-19T13:48:31;18.10;47.80
4411;DHT22;2218;51.408;7.208;2023-11-19T13:50:59;18.10;47.80
4411;DHT22;2218;51.408;7.208;2023-11-19T13:53:26;18.10;47.80
4411;DHT22;2218;51.408;7.208;2023-11-19T13:55:53;18.10;47.80
4411;DHT22;2218;51.408;7.208;2023-11-19T13:58:20;18.10;48.30
4411;DHT22;2218;51.408;7.208;2023-11-19T14:00:47;18.10;47.80
4411;DHT22;2218;51.408;7.208;2023-11-19T14:03:16;18.10;47.80
4411;DHT22;2218;51.408;7.208;2023-11-19T14:05:43;18.10;47.80
4411;DHT22;2218;51.408;7.208;2023-11-19T14:08:10;18.10;47.80
4411;DHT22;2218;51.408;7.208;2023-11-19T14:10:38;18.10;47.80
4411;DHT22;2218;51.408;7.208;2023-11-19T14:13:06;18.10;47.90
4411;DHT22;2218;51.408;7.208;2023-11-19T14:15:33;18.10;47.90
4411;DHT22;2218;51.408;7.208;2023-11-19T14:18:01;18.10;47.90
4411;DHT22;2218;51.408;7.208;2023-11-19T14:20:30;18.10;47.90
4411;DHT22;2218;51.408;7.208;2023-11-19T14:23:01;18.10;47.90
4411;DHT22;2218;51.408;7.208;2023-11-19T14:25:28;18.10;47.90
4411;DHT22;2218;51.408;7.208;2023-11-19T14:27:55;18.10;47.90
4411;DHT22;2218;51.408;7.208;2023-11-19T14:30:22;18.10;47.90
4411;DHT22;2218;51.408;7.208;2023-11-19T14:32:49;18.10;47.90
4411;DHT22;2218;51.408;7.208;2023-11-19T14:35:16;18.10;47.90
4411;DHT22;2218;51.408;7.208;2023-11-19T14:37:44;18.10;48.40
4411;DHT22;2218;51.408;7.208;2023-11-19T14:40:12;18.10;47.90
4411;DHT22;2218;51.408;7.208;2023-11-19T14:42:39;18.10;47.90
4411;DHT22;2218;51.408;7.208;2023-11-19T14:45:07;18.10;47.90
4411;DHT22;2218;51.408;7.208;2023-11-19T14:47:37;18.10;47.90
4411;DHT22;2218;51.408;7.208;2023-11-19T14:50:07;18.10;48.00
4411;DHT22;2218;51.408;7.208;2023-11-19T14:52:35;18.10;48.00
4411;DHT22;2218;51.408;7.208;2023-11-19T14:55:04;18.10;48.00
4411;DHT22;2218;51.408;7.208;2023-11-19T14:57:31;18.10;48.00
4411;DHT22;2218;51.408;7.208;2023-11-19T14:59:58;18.10;48.10
4411;DHT22;2218;51.408;7.208;2023-11-19T15:02:26;18.10;48.10
4411;DHT22;2218;51.408;7.208;2023-11-19T15:04:53;18.10;48.10
4411;DHT22;2218;51.408;7.208;2023-11-19T15:07:22;18.10;48.20
4411;DHT22;2218;51.408;7.208;2023-11-19T15:09:49;18.10;48.20
4411;DHT22;2218;51.408;7.208;2023-11-19T15:12:17;18.10;48.20
4411;DHT22;2218;51.408;7.208;2023-11-19T15:14:44;18.10;48.20
4411;DHT22;2218;51.408;7.208;2023-11-19T15:17:11;18.10;48.20
4411;DHT22;2218;51.408;7.208;2023-11-19T15:19:38;18.10;48.30
4411;DHT22;2218;51.408;7.208;2023-11-19T15:22:06;18.10;48.30
4411;DHT22;2218;51.408;7.208;2023-11-19T15:24:32;18.10;48.30
4411;DHT22;2218;51.408;7.208;2023-11-19T15:27:02;18.10;48.30
4411;DHT22;2218;51.408;7.208;2023-11-19T15:29:31;18.10;48.30
4411;DHT22;2218;51.408;7.208;2023-11-19T15:31:59;18.10;48.40
4411;DHT22;2218;51.408;7.208;2023-11-19T15:34:26;18.10;48.40
4411;DHT22;2218;51.408;7.208;2023-11-19T15:36:53;18.10;48.40
4411;DHT22;2218;51.408;7.208;2023-11-19T15:39:20;18.10;48.40
4411;DHT22;2218;51.408;7.208;2023-11-19T15:41:47;18.10;48.40
4411;DHT22;2218;51.408;7.208;2023-11-19T15:44:14;18.10;48.40
4411;DHT22;2218;51.408;7.208;2023-11-19T15:46:42;18.10;48.40
4411;DHT22;2218;51.408;7.208;2023-11-19T15:49:09;18.10;48.40
4411;DHT22;2218;51.408;7.208;2023-11-19T15:51:36;18.10;48.40
4411;DHT22;2218;51.408;7.208;2023-11-19T15:54:03;18.10;48.50
4411;DHT22;2218;51.408;7.208;2023-11-19T15:56:31;18.10;48.50
4411;DHT22;2218;51.408;7.208;2023-11-19T15:58:58;18.10;48.50
4411;DHT22;2218;51.408;7.208;2023-11-19T16:01:24;18.10;48.50
4411;DHT22;2218;51.408;7.208;2023-11-19T16:03:54;18.10;48.50
4411;DHT22;2218;51.408;7.208;2023-11-19T16:06:21;18.10;48.60
4411;DHT22;2218;51.408;7.208;2023-11-19T16:08:49;18.10;48.60
4411;DHT22;2218;51.408;7.208;2023-11-19T16:11:16;18.10;48.60